Flight Track Log - Related Links

Times and Time Zones

All times are in EDT time to prevent confusion due to time zone crossing. See the AAL1071 flight status page for this flight to view local times or setup timezone preferences in your user account.

Time Position Orientation Groundspeed Altitude Reporting Facility
EDT Latitude Longitude Course Direction KTS MPH feet Rate Location/Type
Tue 10:09:00 AM 25.7986 -80.2606 104° East 187 215 1,000  Level Miami Center
Tue 10:09:19 AM 25.7925 -80.2444 113° Southeast 176 203 2,000 1,629 Climbing Miami Center
Tue 10:10:10 AM 25.7811 -80.2025 107° East 208 239 2,900 1,568 Climbing Miami Center
Tue 10:11:00 AM 25.6842 -79.9122 104° East  Level FlightAware Approximate
Tue 10:11:10 AM 25.7661 -80.1258 102° East 266 306 4,900  Level Miami Center
Tue 10:12:00 AM 25.6549 -79.7863 105° East  Level FlightAware Approximate
Tue 10:12:10 AM 25.7447 -80.0447 106° East 271 312 6,500  Level Miami Center
Tue 10:13:00 AM 25.6333 -79.6596 90° East  Level FlightAware Approximate
Tue 10:13:10 AM 25.7236 -79.9564 105° East 271 312 9,200  Level Miami Center
Tue 10:14:00 AM 25.6074 -79.5332 104° East  Level FlightAware Approximate
Tue 10:14:10 AM 25.7025 -79.8706 105° East 271 312 10,900  Level Miami Center
Tue 10:15:10 AM 25.6775 -79.7686 105° East 306 352 12,400 1,850 Climbing Miami Center
Tue 10:16:10 AM 25.6503 -79.6594 105° East 343 395 14,600 2,300 Climbing Miami Center
Tue 10:17:10 AM 25.6231 -79.5461 105° East 363 418 17,000 2,100 Climbing Miami Center
Tue 10:18:10 AM 25.5919 -79.4278 106° East 376 433 18,800 1,900 Climbing Miami Center
Tue 10:19:10 AM 25.5606 -79.3075 106° East 394 453 20,800 1,900 Climbing Miami Center
Tue 10:20:10 AM 25.5333 -79.1825 104° East 406 467 22,600 1,750 Climbing Miami Center
Tue 10:21:10 AM 25.5039 -79.0508 104° East 425 489 24,300 1,550 Climbing Miami Center
Tue 10:22:10 AM 25.4700 -78.9350 108° East 431 496 25,700 1,400 Climbing Miami Center
Tue 10:23:10 AM 25.4469 -78.7967 100° East 442 509 27,100 1,300 Climbing Miami Center
Tue 10:24:10 AM 25.4089 -78.6581 107° East 452 520 28,300 1,150 Climbing Miami Center
Tue 10:25:10 AM 25.3792 -78.5172 103° East 458 527 29,400 1,100 Climbing Miami Center
Tue 10:26:10 AM 25.3411 -78.3717 106° East 470 541 30,500 1,300 Climbing Miami Center
Tue 10:27:10 AM 25.2756 -78.2444 120° Southeast 476 548 32,000 1,400 Climbing Miami Center
Tue 10:28:10 AM 25.1950 -78.1219 126° Southeast 482 555 33,300 1,150 Climbing Miami Center
Tue 10:29:10 AM 25.1083 -77.9903 126° Southeast 482 555 34,300 900 Climbing Miami Center
Tue 10:30:10 AM 25.0256 -77.8703 127° Southeast 482 555 35,100 950 Climbing Miami Center
Tue 10:31:10 AM 24.9450 -77.7528 127° Southeast 487 560 36,200 950 Climbing Miami Center
Tue 10:32:10 AM 24.8703 -77.6422 127° Southeast 492 566 37,000 400 Climbing Miami Center
Tue 10:33:10 AM 24.7894 -77.5203 126° Southeast 492 566 37,000  Level Miami Center
Tue 10:34:10 AM 24.7103 -77.4011 126° Southeast 492 566 37,000  Level Miami Center
Tue 10:35:10 AM 24.6314 -77.2817 126° Southeast 486 559 37,000  Level Miami Center
Tue 10:36:10 AM 24.5522 -77.1628 126° Southeast 481 554 37,000  Level Miami Center
Tue 10:37:10 AM 24.4625 -77.0347 128° Southeast 481 554 37,000  Level Miami Center
Tue 10:38:10 AM 24.3833 -76.9158 126° Southeast 481 554 37,000  Level Miami Center
Tue 10:39:10 AM 24.3039 -76.7972 126° Southeast 482 555 37,000  Level Miami Center
Tue 10:40:10 AM 24.2242 -76.6833 127° Southeast 482 555 37,000  Level Miami Center
Tue 10:41:10 AM 24.1467 -76.5672 126° Southeast 482 555 37,000  Level Miami Center
Tue 10:42:10 AM 24.0650 -76.4492 127° Southeast 482 555 37,000  Level Miami Center
Tue 10:43:10 AM 23.9872 -76.3336 126° Southeast 482 555 37,000  Level Miami Center
Tue 10:44:10 AM 23.9158 -76.2292 127° Southeast 482 555 37,000  Level Miami Center
Tue 10:45:10 AM 23.8339 -76.1139 128° Southeast 482 555 37,000  Level Miami Center
Tue 10:46:10 AM 23.7536 -75.9961 127° Southeast 482 555 37,000  Level Miami Center
Tue 10:47:10 AM 23.6714 -75.8789 127° Southeast 482 555 37,000  Level Miami Center
Tue 10:48:10 AM 23.5911 -75.7569 126° Southeast 487 560 37,000  Level Miami Center
Tue 10:49:10 AM 23.5336 -75.6169 114° Southeast 493 567 37,000  Level Miami Center
Tue 10:50:10 AM 23.4719 -75.4908 118° Southeast 488 562 37,000  Level Miami Center
Tue 10:51:10 AM 23.4144 -75.3600 116° Southeast 483 556 37,000  Level Miami Center
Tue 10:52:10 AM 23.3481 -75.2183 117° Southeast 478 550 37,000  Level Miami Center
Tue 10:53:10 AM 23.2881 -75.0833 116° Southeast 478 550 37,000  Level Miami Center
Tue 10:54:10 AM 23.2300 -74.9553 116° Southeast 478 550 37,000  Level Miami Center
Tue 10:55:10 AM 23.1697 -74.8250 117° Southeast 483 556 37,000  Level Miami Center
Tue 10:56:10 AM 23.1117 -74.6972 116° Southeast 477 549 37,000  Level Miami Center
Tue 10:57:10 AM 23.0553 -74.5694 116° Southeast 477 549 37,000  Level Miami Center
Tue 10:58:10 AM 22.9969 -74.4419 116° Southeast 472 543 37,000  Level Miami Center
Tue 10:59:10 AM 22.9386 -74.3167 117° Southeast 467 537 37,000  Level Miami Center
Tue 11:00:10 AM 22.8778 -74.1917 118° Southeast 467 537 37,000  Level Miami Center
Tue 11:01:10 AM 22.8211 -74.0622 115° Southeast 467 537 37,000  Level Miami Center
Tue 11:02:10 AM 22.7644 -73.9372 116° Southeast 462 532 37,000  Level Miami Center
Tue 11:03:10 AM 22.7056 -73.8103 117° Southeast 462 532 37,000  Level Miami Center
Tue 11:04:10 AM 22.6444 -73.6836 118° Southeast 462 532 37,000  Level Miami Center
Tue 11:05:10 AM 22.5856 -73.5567 117° Southeast 462 532 37,000  Level Miami Center
Tue 11:06:10 AM 22.5264 -73.4325 117° Southeast 467 537 37,000  Level Miami Center
Tue 11:07:10 AM 22.4772 -73.3033 112° Southeast 461 531 37,000  Level Miami Center
Tue 11:08:10 AM 22.4139 -73.1817 119° Southeast 461 531 37,000  Level Miami Center
Tue 11:09:10 AM 22.3586 -73.0597 116° Southeast 461 531 37,000  Level Miami Center
Tue 11:10:10 AM 22.3033 -72.9378 116° Southeast 456 525 37,000  Level Miami Center
Tue 11:11:10 AM 22.2853 -72.8039 98° East 450 518 37,000  Level Miami Center
Tue 11:12:10 AM 22.2794 -72.6672 93° East 450 518 37,000  Level Miami Center
Tue 11:13:10 AM 22.2778 -72.5303 91° East 445 512 37,000  Level Miami Center
Tue 11:14:10 AM 22.2758 -72.3914 91° East 445 512 37,000  Level Miami Center
Tue 11:15:10 AM 22.2739 -72.2547 91° East 445 512 37,000  Level Miami Center
Tue 11:16:10 AM 22.2717 -72.1158 91° East 450 518 37,000  Level Miami Center
Tue 11:17:10 AM 22.2653 -71.9792 93° East 456 525 37,000  Level Miami Center
Tue 11:18:10 AM 22.2522 -71.8428 96° East 456 525 37,000  Level Miami Center
Tue 11:19:10 AM 22.2228 -71.7094 103° East 461 531 37,000  Level Miami Center
Tue 11:20:10 AM 22.1917 -71.5897 106° East 461 531 37,000  Level Miami Center
Tue 11:21:10 AM 22.1536 -71.4569 107° East 461 531 37,000  Level Miami Center
Tue 11:22:10 AM 22.1114 -71.3286 110° East 461 531 37,000  Level Miami Center
Tue 11:23:10 AM 22.0692 -71.1983 109° East 456 525 37,000  Level Miami Center
Tue 11:24:10 AM 22.0081 -71.0758 118° Southeast 456 525 37,000  Level Miami Center
Tue 11:25:10 AM 21.9331 -70.9650 126° Southeast 456 525 37,000  Level Miami Center
Tue 11:26:10 AM 21.8558 -70.8567 128° Southeast 461 531 37,000  Level Miami Center
Tue 11:27:10 AM 21.7644 -70.7625 136° Southeast 461 531 37,000  Level Miami Center
Tue 11:28:10 AM 21.6553 -70.6917 149° Southeast 452 520 37,000  Level Miami Center
Tue 11:29:10 AM 21.5442 -70.6278 152° Southeast 452 520 37,000  Level Miami Center
Tue 11:30:10 AM 21.4350 -70.5617 151° Southeast 452 520 37,000  Level Miami Center
Tue 11:31:10 AM 21.3283 -70.5022 153° Southeast 446 513 37,000  Level Miami Center
Tue 11:32:10 AM 21.2214 -70.4381 151° Southeast 446 513 37,000  Level Miami Center
Tue 11:33:10 AM 21.1061 -70.3725 152° Southeast 441 507 37,000  Level Miami Center
Tue 11:34:10 AM 21.0036 -70.3108 151° Southeast 441 507 37,000  Level Miami Center
Tue 11:35:10 AM 20.8967 -70.2494 152° Southeast 436 502 37,000  Level Miami Center
Tue 11:36:10 AM 20.7919 -70.1858 150° Southeast 431 496 37,000  Level Miami Center
Tue 11:37:10 AM 20.6872 -70.1244 151° Southeast 426 490 37,000 -200 Level Miami Center
Tue 11:38:10 AM 20.5847 -70.0675 153° Southeast 421 484 36,600 -650 Descending Miami Center
Tue 11:39:10 AM 20.4778 -70.0044 151° Southeast 426 490 35,700 -950 Descending Miami Center
Tue 11:40:10 AM 20.3708 -69.9433 152° Southeast 426 490 34,700 -950 Descending Miami Center
Tue 11:41:10 AM 20.2658 -69.8803 151° Southeast 426 490 33,800 -1,400 Descending Miami Center
Tue 11:42:10 AM 20.1631 -69.8169 150° Southeast 426 490 31,900 -2,200 Descending Miami Center
Tue 11:43:10 AM 20.0586 -69.7606 153° Southeast 426 490 29,400 -2,300 Descending Miami Center
Tue 11:44:10 AM 19.9622 -69.7039 151° Southeast 416 479 27,300 -1,550 Descending Miami Center
Tue 11:45:10 AM 19.8817 -69.6267 138° Southeast 403 464 26,300 -1,000 Descending Miami Center
Tue 11:47:00 AM 19.7245 -69.4737 134° Southeast  Level FlightAware Approximate
Tue 11:54:00 AM 19.1317 -68.8817 137° Southeast  Level FlightAware Approximate
Tue 11:55:00 AM 19.0470 -68.7970 137° Southeast  Level FlightAware Approximate
Tue 11:56:00 AM 18.9590 -68.7164 140° Southeast  Level FlightAware Approximate
Tue 11:57:00 AM 18.8703 -68.6366 140° Southeast  Level FlightAware Approximate
Tue 11:58:00 AM 18.7856 -68.5522 137° Southeast  Level FlightAware Approximate
Tue 11:59:00 AM 18.7010 -68.4677 137° Southeast  Level FlightAware Approximate
Tue 12:00:00 PM 18.6103 -68.3915 128° Southeast  Level FlightAware Approximate
Tue 12:01:00 PM 18.5674 -68.3634 128° Southeast  Level Estimated
Tue 12:02:00 PM 18.5674 -68.3634 128° Southeast  Level Estimated
Tue 12:03:00 PM 18.5674 -68.3634 128° Southeast  Level Estimated
Tue 12:04:00 PM 18.5674 -68.3634 128° Southeast  Level Estimated
Tue 12:05:00 PM 18.5674 -68.3634 128° Southeast  Level Estimated
Tue 12:06:00 PM 18.5674 -68.3634 128° Southeast  Level Estimated
Tue 12:07:00 PM 18.5674 -68.3634 128° Southeast  Level Estimated
Tue 12:08:00 PM 18.5674 -68.3634 128° Southeast  Level Estimated
Tue 12:09:00 PM 18.5674 -68.3634 128° Southeast  Level Estimated
Tue 12:10:00 PM 18.5674 -68.3634 128° Southeast  Level Estimated

Login

Don't have an account? Register now (free) for customized features, flight alerts, and more!